createdAt,value
2017-10-17T00:00:05.094Z,5.80
2017-10-17T00:02:32.651Z,5.27
2017-10-17T00:05:00.375Z,5.07
2017-10-17T00:07:27.991Z,6.17
2017-10-17T00:09:55.608Z,6.57
2017-10-17T00:12:23.234Z,5.60
2017-10-17T00:14:50.900Z,5.30
2017-10-17T00:17:20.073Z,5.17
2017-10-17T00:19:47.723Z,4.20
2017-10-17T00:22:15.364Z,5.83
2017-10-17T00:24:42.973Z,5.80
2017-10-17T00:27:10.895Z,6.00
2017-10-17T00:29:38.733Z,6.00
2017-10-17T00:32:06.478Z,5.80
2017-10-17T00:34:34.126Z,5.87
2017-10-17T00:37:01.837Z,5.63
2017-10-17T00:39:29.541Z,5.30
2017-10-17T00:41:57.127Z,5.70
2017-10-17T00:44:24.767Z,5.43
2017-10-17T00:46:52.519Z,4.53
2017-10-17T00:49:27.915Z,6.13
2017-10-17T00:51:55.687Z,4.90
2017-10-17T00:54:23.266Z,6.10
2017-10-17T00:56:50.876Z,4.97
2017-10-17T00:59:18.539Z,7.20
2017-10-17T01:01:46.235Z,6.20
2017-10-17T01:04:13.930Z,6.87
2017-10-17T01:06:41.682Z,5.40
2017-10-17T01:09:10.104Z,5.23
2017-10-17T01:11:37.923Z,6.07
2017-10-17T01:14:05.685Z,5.47
2017-10-17T01:16:33.328Z,7.03
2017-10-17T01:19:00.973Z,5.90
2017-10-17T01:21:28.750Z,5.93
2017-10-17T01:24:08.220Z,5.07
2017-10-17T01:26:35.876Z,4.70
2017-10-17T01:29:15.155Z,4.67
2017-10-17T01:31:42.752Z,5.40
2017-10-17T01:34:10.535Z,5.60
2017-10-17T01:36:41.986Z,4.87
2017-10-17T01:39:09.596Z,5.20
2017-10-17T01:41:37.200Z,6.10
2017-10-17T01:44:09.129Z,4.00
2017-10-17T01:46:48.755Z,4.60
2017-10-17T01:49:31.230Z,4.50
2017-10-17T01:52:14.441Z,4.80
2017-10-17T01:54:53.853Z,5.30
2017-10-17T01:57:21.835Z,4.37
2017-10-17T02:00:04.336Z,4.30
2017-10-17T02:02:32.119Z,5.60
2017-10-17T02:05:01.929Z,4.20
2017-10-17T02:07:29.961Z,4.67
2017-10-17T02:10:01.086Z,4.80
2017-10-17T02:12:28.682Z,4.97
2017-10-17T02:14:56.350Z,6.03
2017-10-17T02:17:23.986Z,5.23
2017-10-17T02:19:51.626Z,5.97
2017-10-17T02:22:20.130Z,5.57
2017-10-17T02:24:50.445Z,4.30
2017-10-17T02:27:18.879Z,4.70
2017-10-17T02:29:49.969Z,5.27
2017-10-17T02:32:17.637Z,5.33
2017-10-17T02:34:47.915Z,5.00
2017-10-17T02:37:15.568Z,4.90
2017-10-17T02:39:43.225Z,4.90
2017-10-17T02:42:10.818Z,4.90
2017-10-17T02:44:38.479Z,5.07
2017-10-17T02:47:06.854Z,4.83
2017-10-17T02:49:42.538Z,4.00
2017-10-17T02:55:16.618Z,4.50
2017-10-17T02:57:44.330Z,5.10
2017-10-17T03:00:21.843Z,4.30
2017-10-17T03:02:49.483Z,4.33
2017-10-17T03:05:17.933Z,4.83
2017-10-17T03:07:52.122Z,5.13
2017-10-17T03:10:19.953Z,5.40
2017-10-17T03:12:47.553Z,5.17
2017-10-17T03:15:18.946Z,4.50
2017-10-17T03:17:46.559Z,6.07
2017-10-17T03:20:14.159Z,4.37
2017-10-17T03:22:41.755Z,5.97
2017-10-17T03:25:18.774Z,4.53
2017-10-17T03:27:49.306Z,5.30
2017-10-17T03:30:16.943Z,5.33
2017-10-17T03:32:47.494Z,8.23
2017-10-17T03:35:16.083Z,9.70
2017-10-17T03:37:49.632Z,6.73
2017-10-17T03:40:21.865Z,6.57
2017-10-17T03:42:53.280Z,6.00
2017-10-17T03:45:21.135Z,5.40
2017-10-17T03:47:51.449Z,5.27
2017-10-17T03:50:22.752Z,5.70
2017-10-17T03:52:50.399Z,5.40
2017-10-17T03:55:17.994Z,6.27
2017-10-17T03:57:48.408Z,5.53
2017-10-17T04:00:16.909Z,5.27
2017-10-17T04:02:44.992Z,5.70
2017-10-17T04:05:16.948Z,8.00
2017-10-17T04:10:50.511Z,5.80
2017-10-17T04:13:29.033Z,5.07
2017-10-17T04:15:56.620Z,6.07
2017-10-17T04:21:41.139Z,6.00
2017-10-17T04:24:08.791Z,4.97
2017-10-17T04:26:36.427Z,6.33
2017-10-17T04:29:11.211Z,5.40
2017-10-17T04:31:53.804Z,7.23
2017-10-17T04:34:28.293Z,6.90
2017-10-17T04:36:59.555Z,6.20
2017-10-17T04:39:27.144Z,5.63
2017-10-17T04:42:02.478Z,6.47
2017-10-17T04:44:41.874Z,6.17
2017-10-17T04:47:10.394Z,7.03
2017-10-17T04:52:40.288Z,6.93
2017-10-17T04:55:08.426Z,5.37
2017-10-17T04:57:45.960Z,5.10
2017-10-17T05:00:14.455Z,5.20
2017-10-17T05:03:03.773Z,6.37
2017-10-17T05:05:42.963Z,5.90
2017-10-17T05:08:17.401Z,5.97
2017-10-17T05:13:59.823Z,6.40
2017-10-17T05:16:35.727Z,6.57
2017-10-17T05:19:13.827Z,7.60
2017-10-17T05:21:41.482Z,6.00
2017-10-17T05:24:20.246Z,6.23
2017-10-17T05:26:47.924Z,6.10
2017-10-17T05:29:19.363Z,7.13
2017-10-17T05:31:47.707Z,9.10
2017-10-17T05:34:20.088Z,6.53
2017-10-17T05:39:43.713Z,6.27
2017-10-17T05:42:11.338Z,5.57
2017-10-17T05:44:42.414Z,5.63
2017-10-17T05:47:13.777Z,6.40
2017-10-17T05:49:45.999Z,6.57
2017-10-17T05:52:13.694Z,5.70
2017-10-17T05:54:41.260Z,5.60
2017-10-17T05:57:08.856Z,6.63
2017-10-17T05:59:36.579Z,5.50
2017-10-17T06:02:04.219Z,5.43
2017-10-17T06:04:32.189Z,6.83
2017-10-17T06:06:59.758Z,8.37
2017-10-17T06:09:27.399Z,6.80
2017-10-17T06:11:57.916Z,7.13
2017-10-17T06:14:25.670Z,10.60
2017-10-17T06:16:53.326Z,8.00
2017-10-17T06:19:21.025Z,6.80
2017-10-17T06:21:49.012Z,12.00
2017-10-17T06:24:27.362Z,9.43
2017-10-17T06:26:54.953Z,7.60
2017-10-17T06:29:22.623Z,6.43
2017-10-17T06:31:50.364Z,5.20
2017-10-17T06:34:17.937Z,6.43
2017-10-17T06:36:45.732Z,4.90
2017-10-17T06:39:13.260Z,5.67
2017-10-17T06:41:40.855Z,4.13
2017-10-17T06:44:08.389Z,5.90
2017-10-17T06:46:36.024Z,6.03
2017-10-17T06:49:04.240Z,6.67
2017-10-17T06:51:31.817Z,5.57
2017-10-17T06:53:59.408Z,5.30
2017-10-17T06:56:26.980Z,5.40
2017-10-17T06:58:54.987Z,5.93
2017-10-17T07:01:22.789Z,6.67
2017-10-17T07:03:50.405Z,5.27
2017-10-17T07:06:17.957Z,5.23
2017-10-17T07:08:45.508Z,4.73
2017-10-17T07:11:13.233Z,4.77
2017-10-17T07:13:40.760Z,4.70
2017-10-17T07:16:08.324Z,5.47
2017-10-17T07:18:35.859Z,4.90
2017-10-17T07:21:03.447Z,7.20
2017-10-17T07:23:31.062Z,13.00
2017-10-17T07:25:58.618Z,9.63
2017-10-17T07:28:26.161Z,7.00
2017-10-17T07:30:53.711Z,5.40
2017-10-17T07:33:21.687Z,6.57
2017-10-17T07:35:49.225Z,5.63
2017-10-17T07:38:16.820Z,6.90
2017-10-17T07:40:44.352Z,6.53
2017-10-17T07:43:11.908Z,5.90
2017-10-17T07:45:39.926Z,6.40
2017-10-17T07:48:07.465Z,6.30
2017-10-17T07:50:35.041Z,7.63
2017-10-17T07:53:02.622Z,7.63
2017-10-17T07:55:30.184Z,7.80
2017-10-17T07:57:57.732Z,8.63
2017-10-17T08:00:25.292Z,5.80
2017-10-17T08:02:52.827Z,6.23
2017-10-17T08:05:20.405Z,7.40
2017-10-17T08:07:47.972Z,8.70
2017-10-17T08:10:15.540Z,8.60
2017-10-17T08:12:43.084Z,8.87
2017-10-17T08:15:10.715Z,8.57
2017-10-17T08:17:38.256Z,7.70
2017-10-17T08:20:05.821Z,8.90
2017-10-17T08:22:33.361Z,8.17
2017-10-17T08:25:00.897Z,7.57
2017-10-17T08:27:28.494Z,5.00
2017-10-17T08:29:56.036Z,6.67
2017-10-17T08:32:23.555Z,5.07
2017-10-17T08:34:51.102Z,6.60
2017-10-17T08:37:18.661Z,5.57
2017-10-17T08:39:46.220Z,6.17
2017-10-17T08:42:13.793Z,6.60
2017-10-17T08:44:41.332Z,5.90
2017-10-17T08:47:08.943Z,6.20
2017-10-17T08:49:36.569Z,7.33
2017-10-17T08:52:04.145Z,6.50
2017-10-17T08:54:31.707Z,6.20
2017-10-17T08:56:59.232Z,5.60
2017-10-17T08:59:26.779Z,6.30
2017-10-17T09:01:54.354Z,6.07
2017-10-17T09:04:22.346Z,6.40
2017-10-17T09:06:49.892Z,6.20
2017-10-17T09:09:17.645Z,6.07
2017-10-17T09:11:45.250Z,7.20
2017-10-17T09:14:12.829Z,7.67
2017-10-17T09:16:40.418Z,6.63
2017-10-17T09:19:07.979Z,7.00
2017-10-17T09:21:35.523Z,6.73
2017-10-17T09:24:03.079Z,7.67
2017-10-17T09:26:30.631Z,6.40
2017-10-17T09:28:58.180Z,7.13
2017-10-17T09:31:26.045Z,8.17
2017-10-17T09:33:53.594Z,6.90
2017-10-17T09:39:11.274Z,6.10
2017-10-17T09:41:38.840Z,6.60
2017-10-17T09:44:06.398Z,5.90
2017-10-17T09:46:33.918Z,7.07
2017-10-17T09:49:01.484Z,7.87
2017-10-17T09:51:30.187Z,7.33
2017-10-17T09:53:57.750Z,6.13
2017-10-17T09:56:25.318Z,6.20
2017-10-17T09:58:52.851Z,5.53
2017-10-17T10:01:20.404Z,6.17
2017-10-17T10:03:47.968Z,5.50
2017-10-17T10:08:49.393Z,4.60
2017-10-17T10:11:16.931Z,4.97
2017-10-17T10:13:44.465Z,6.03
2017-10-17T10:16:12.074Z,4.80
2017-10-17T10:18:39.724Z,5.60
2017-10-17T10:21:07.257Z,4.90
2017-10-17T10:23:34.816Z,4.60
2017-10-17T10:26:02.861Z,4.43
2017-10-17T10:28:30.499Z,5.00
2017-10-17T10:30:58.125Z,3.97
2017-10-17T10:33:25.674Z,4.40
2017-10-17T10:35:53.242Z,5.20
2017-10-17T10:38:20.880Z,4.30
2017-10-17T10:40:48.676Z,3.60
2017-10-17T10:43:16.452Z,3.83
2017-10-17T10:45:44.045Z,4.57
2017-10-17T10:48:12.140Z,4.60
2017-10-17T10:50:40.210Z,4.70
2017-10-17T10:53:07.789Z,4.20
2017-10-17T10:55:35.353Z,3.93
2017-10-17T10:58:03.542Z,3.13
2017-10-17T11:00:31.226Z,3.70
2017-10-17T11:02:58.766Z,4.03
2017-10-17T11:05:26.302Z,4.67
2017-10-17T11:07:53.886Z,4.40
2017-10-17T11:10:21.439Z,4.50
2017-10-17T11:12:49.000Z,3.83
2017-10-17T11:15:16.551Z,4.17
2017-10-17T11:17:44.095Z,4.70
2017-10-17T11:20:11.760Z,4.23
2017-10-17T11:22:39.343Z,4.97
2017-10-17T11:25:07.276Z,4.07
2017-10-17T11:27:34.846Z,3.90
2017-10-17T11:30:02.422Z,4.30
2017-10-17T11:32:29.944Z,4.20
2017-10-17T11:34:57.506Z,4.20
2017-10-17T11:37:25.101Z,4.67
2017-10-17T11:39:52.643Z,4.40
2017-10-17T11:42:31.899Z,4.23
2017-10-17T11:44:59.462Z,4.57
2017-10-17T11:47:27.037Z,4.43
2017-10-17T11:49:54.642Z,4.83
2017-10-17T11:52:22.789Z,4.00
2017-10-17T11:54:50.347Z,4.50
2017-10-17T11:57:17.933Z,5.37
2017-10-17T11:59:45.473Z,4.50
2017-10-17T12:02:13.019Z,5.20
2017-10-17T12:04:40.663Z,5.40
2017-10-17T12:07:08.208Z,5.53
2017-10-17T12:09:35.805Z,5.10
2017-10-17T12:12:03.389Z,7.40
2017-10-17T12:14:30.921Z,5.23
2017-10-17T12:16:58.531Z,5.27
2017-10-17T12:19:26.398Z,6.30
2017-10-17T12:21:53.939Z,6.17
2017-10-17T12:24:22.259Z,5.90
2017-10-17T12:26:49.822Z,5.77
2017-10-17T12:29:17.394Z,5.97
2017-10-17T12:31:44.965Z,6.23
2017-10-17T12:34:12.653Z,5.73
2017-10-17T12:36:40.194Z,6.57
2017-10-17T12:39:07.852Z,5.90
2017-10-17T12:41:35.807Z,5.90
2017-10-17T12:44:03.483Z,5.33
2017-10-17T12:46:31.040Z,5.80
2017-10-17T12:48:58.603Z,5.80
2017-10-17T12:51:26.618Z,5.70
2017-10-17T12:53:54.381Z,5.90
2017-10-17T12:56:22.373Z,6.80
2017-10-17T12:58:49.962Z,5.87
2017-10-17T13:01:17.510Z,6.43
2017-10-17T13:03:45.047Z,6.60
2017-10-17T13:06:12.606Z,5.93
2017-10-17T13:08:40.131Z,6.40
2017-10-17T13:11:07.738Z,6.83
2017-10-17T13:13:35.467Z,6.77
2017-10-17T13:16:03.328Z,6.73
2017-10-17T13:18:30.868Z,6.00
2017-10-17T13:20:58.425Z,7.73
2017-10-17T13:23:26.488Z,9.33
2017-10-17T13:25:54.040Z,7.43
2017-10-17T13:28:21.616Z,7.47
2017-10-17T13:30:49.171Z,8.93
2017-10-17T13:33:16.715Z,8.33
2017-10-17T13:35:44.290Z,8.90
2017-10-17T13:38:11.829Z,8.30
2017-10-17T13:40:39.426Z,8.90
2017-10-17T13:43:07.817Z,8.90
2017-10-17T13:45:35.365Z,9.87
2017-10-17T13:48:02.896Z,8.97
2017-10-17T13:50:30.777Z,9.47
2017-10-17T13:52:58.308Z,9.67
2017-10-17T13:55:25.979Z,8.93
2017-10-17T13:57:53.561Z,11.87
2017-10-17T14:00:21.107Z,11.47
2017-10-17T14:02:48.640Z,9.67
2017-10-17T14:05:16.225Z,9.80
2017-10-17T14:07:44.066Z,9.20
2017-10-17T14:10:12.585Z,11.17
2017-10-17T14:12:40.129Z,10.40
2017-10-17T14:15:07.702Z,9.93
2017-10-17T14:17:35.805Z,10.07
2017-10-17T14:20:03.900Z,8.93
2017-10-17T14:22:31.473Z,10.67
2017-10-17T14:24:59.012Z,8.33
2017-10-17T14:27:26.573Z,10.70
2017-10-17T14:29:54.737Z,11.13
2017-10-17T14:32:22.330Z,9.70
2017-10-17T14:34:49.905Z,10.60
2017-10-17T14:37:17.437Z,9.57
2017-10-17T14:39:45.507Z,10.00
2017-10-17T14:42:13.135Z,10.20
2017-10-17T14:44:40.682Z,10.00
2017-10-17T14:47:08.233Z,11.93
2017-10-17T14:49:36.042Z,9.80
2017-10-17T14:52:03.610Z,11.20
2017-10-17T14:54:31.155Z,10.60
2017-10-17T14:56:59.296Z,10.30
2017-10-17T14:59:26.844Z,32.77
2017-10-17T15:01:54.386Z,14.97
2017-10-17T15:04:22.357Z,12.43
2017-10-17T15:06:49.900Z,12.90
2017-10-17T15:09:17.450Z,16.20
2017-10-17T15:11:45.024Z,16.23
2017-10-17T15:14:12.549Z,14.50
2017-10-17T15:16:40.096Z,12.80
2017-10-17T15:19:10.214Z,11.50
2017-10-17T15:21:37.772Z,14.80
2017-10-17T15:24:05.308Z,10.97
2017-10-17T15:26:32.860Z,9.10
2017-10-17T15:29:00.390Z,9.67
2017-10-17T15:31:27.916Z,9.57
2017-10-17T15:33:55.469Z,10.07
2017-10-17T15:36:23.548Z,10.90
2017-10-17T15:38:51.082Z,8.57
2017-10-17T15:41:18.639Z,9.50
2017-10-17T15:43:46.191Z,8.07
2017-10-17T15:46:13.838Z,8.60
2017-10-17T15:48:41.441Z,9.17
2017-10-17T15:51:09.161Z,8.90
2017-10-17T15:53:36.699Z,8.40
2017-10-17T15:56:04.249Z,9.03
2017-10-17T15:58:31.787Z,8.60
2017-10-17T16:00:59.332Z,10.53
2017-10-17T16:03:27.233Z,9.30
2017-10-17T16:05:54.812Z,10.20
2017-10-17T16:08:22.342Z,9.07
2017-10-17T16:10:49.895Z,9.07
2017-10-17T16:13:17.425Z,10.93
2017-10-17T16:15:44.945Z,8.90
2017-10-17T16:18:12.488Z,9.40
2017-10-17T16:20:40.030Z,9.40
2017-10-17T16:23:07.600Z,9.03
2017-10-17T16:25:35.168Z,10.17
2017-10-17T16:28:02.732Z,10.70
2017-10-17T16:30:30.845Z,10.70
2017-10-17T16:32:58.583Z,11.00
2017-10-17T16:35:26.175Z,10.93
2017-10-17T16:37:53.746Z,10.40
2017-10-17T16:40:21.446Z,10.30
2017-10-17T16:42:49.000Z,11.73
2017-10-17T16:45:16.606Z,10.40
2017-10-17T16:47:44.213Z,11.23
2017-10-17T16:50:11.955Z,11.27
2017-10-17T16:52:39.530Z,10.47
2017-10-17T16:55:07.133Z,11.53
2017-10-17T16:57:34.797Z,11.20
2017-10-17T17:00:02.873Z,12.20
2017-10-17T17:02:30.729Z,10.90
2017-10-17T17:04:58.413Z,11.87
2017-10-17T17:07:26.083Z,10.90
2017-10-17T17:09:53.775Z,11.53
2017-10-17T17:12:22.129Z,10.60
2017-10-17T17:14:49.716Z,10.13
2017-10-17T17:17:17.327Z,10.70
2017-10-17T17:19:44.921Z,12.73
2017-10-17T17:22:12.502Z,12.27
2017-10-17T17:24:50.867Z,12.13
2017-10-17T17:27:18.479Z,12.70
2017-10-17T17:29:46.238Z,11.57
2017-10-17T17:32:13.857Z,15.20
2017-10-17T17:34:41.427Z,16.77
2017-10-17T17:37:09.143Z,15.67
2017-10-17T17:39:36.764Z,13.53
2017-10-17T17:42:04.396Z,14.50
2017-10-17T17:44:31.975Z,16.40
2017-10-17T17:46:59.584Z,18.67
2017-10-17T17:49:27.223Z,21.00
2017-10-17T17:51:54.826Z,22.53
2017-10-17T17:54:22.483Z,20.80
2017-10-17T17:56:50.085Z,25.33
2017-10-17T17:59:17.768Z,26.37
2017-10-17T18:01:45.532Z,25.40
2017-10-17T18:04:13.217Z,22.90
2017-10-17T18:06:40.988Z,22.97
2017-10-17T18:09:08.595Z,20.70
2017-10-17T18:11:36.314Z,23.13
2017-10-17T18:14:03.914Z,24.80
2017-10-17T18:16:31.582Z,26.17
2017-10-17T18:18:59.346Z,24.50
2017-10-17T18:21:37.845Z,22.57
2017-10-17T18:24:05.447Z,22.50
2017-10-17T18:26:33.023Z,23.40
2017-10-17T18:29:00.637Z,22.83
2017-10-17T18:31:28.211Z,27.37
2017-10-17T18:33:55.776Z,25.97
2017-10-17T18:36:23.364Z,27.93
2017-10-17T18:38:50.951Z,25.07
2017-10-17T18:41:18.554Z,27.90
2017-10-17T18:43:46.234Z,27.57
2017-10-17T18:49:03.886Z,23.57
2017-10-17T18:51:31.519Z,22.60
2017-10-17T18:53:59.181Z,26.10
2017-10-17T18:56:26.844Z,26.60
2017-10-17T18:58:54.765Z,24.60
2017-10-17T19:01:22.338Z,24.97
2017-10-17T19:03:49.948Z,25.60
2017-10-17T19:06:17.612Z,26.33
2017-10-17T19:08:45.176Z,26.87
2017-10-17T19:11:13.026Z,26.73
2017-10-17T19:13:40.601Z,28.73
2017-10-17T19:16:08.196Z,28.70
2017-10-17T19:18:35.839Z,26.00
2017-10-17T19:21:03.441Z,23.80
2017-10-17T19:23:31.056Z,26.83
2017-10-17T19:25:58.834Z,28.53
2017-10-17T19:28:26.455Z,31.77
2017-10-17T19:30:54.060Z,32.53
2017-10-17T19:33:21.639Z,25.10
2017-10-17T19:35:49.298Z,30.60
2017-10-17T19:38:16.979Z,28.27
2017-10-17T19:40:44.580Z,29.37
2017-10-17T19:43:12.280Z,30.93
2017-10-17T19:45:39.869Z,32.00
2017-10-17T19:48:07.582Z,32.70
2017-10-17T19:50:35.311Z,31.13
2017-10-17T19:53:02.964Z,28.37
2017-10-17T19:55:30.577Z,29.27
2017-10-17T19:57:58.215Z,30.50
2017-10-17T20:00:25.868Z,33.10
2017-10-17T20:02:53.454Z,31.03
2017-10-17T20:05:21.075Z,29.83
2017-10-17T20:07:48.678Z,33.50
2017-10-17T20:10:16.258Z,32.40
2017-10-17T20:12:43.885Z,29.73
2017-10-17T20:15:11.548Z,30.73
2017-10-17T20:17:39.138Z,31.30
2017-10-17T20:20:06.744Z,28.10
2017-10-17T20:22:34.318Z,37.63
2017-10-17T20:25:02.669Z,32.53
2017-10-17T20:30:22.387Z,39.17
2017-10-17T20:32:49.982Z,35.50
2017-10-17T20:35:17.644Z,40.07
2017-10-17T20:37:45.241Z,38.70
2017-10-17T20:40:12.849Z,38.17
2017-10-17T20:42:40.457Z,37.00
2017-10-17T20:45:08.090Z,37.97
2017-10-17T20:47:35.702Z,40.30
2017-10-17T20:50:03.327Z,37.27
2017-10-17T20:52:30.915Z,37.53
2017-10-17T20:54:58.524Z,35.33
2017-10-17T20:57:26.766Z,33.20
2017-10-17T20:59:54.513Z,33.77
2017-10-17T21:05:12.544Z,39.10
2017-10-17T21:07:40.185Z,38.17
2017-10-17T21:10:07.754Z,40.67
2017-10-17T21:12:35.358Z,39.93
2017-10-17T21:15:03.784Z,38.73
2017-10-17T21:17:31.387Z,37.17
2017-10-17T21:19:58.974Z,39.80
2017-10-17T21:22:27.328Z,36.40
2017-10-17T21:24:54.902Z,33.67
2017-10-17T21:27:22.491Z,38.50
2017-10-17T21:29:50.118Z,40.87
2017-10-17T21:32:17.718Z,41.33
2017-10-17T21:34:45.292Z,40.60
2017-10-17T21:37:12.882Z,42.57
2017-10-17T21:39:40.465Z,39.03
2017-10-17T21:42:08.066Z,40.00
2017-10-17T21:44:35.690Z,44.00
2017-10-17T21:47:03.425Z,43.03
2017-10-17T21:49:31.019Z,40.77
2017-10-17T21:51:58.598Z,38.17
2017-10-17T21:54:26.195Z,37.10
2017-10-17T21:56:53.785Z,37.50
2017-10-17T21:59:21.387Z,36.90
2017-10-17T22:01:48.965Z,35.27
2017-10-17T22:04:16.686Z,35.60
2017-10-17T22:06:44.248Z,35.70
2017-10-17T22:09:11.817Z,37.50
2017-10-17T22:11:39.407Z,40.60
2017-10-17T22:14:06.977Z,39.10
2017-10-17T22:16:34.550Z,37.37
2017-10-17T22:19:02.996Z,35.27
2017-10-17T22:21:30.642Z,38.90
2017-10-17T22:23:58.242Z,36.73
2017-10-17T22:26:25.850Z,37.87
2017-10-17T22:28:53.573Z,38.70
2017-10-17T22:31:21.158Z,38.50
2017-10-17T22:33:48.739Z,42.63
2017-10-17T22:36:16.297Z,38.37
2017-10-17T22:38:43.906Z,37.03
2017-10-17T22:41:11.505Z,40.77
2017-10-17T22:43:39.111Z,37.97
2017-10-17T22:46:06.844Z,34.47
2017-10-17T22:48:34.451Z,33.50
2017-10-17T22:51:02.020Z,35.93
2017-10-17T22:53:29.567Z,34.20
2017-10-17T22:55:57.151Z,38.60
2017-10-17T22:58:24.745Z,39.00
2017-10-17T23:00:52.351Z,39.47
2017-10-17T23:03:19.946Z,39.07
2017-10-17T23:05:47.557Z,37.60
2017-10-17T23:08:15.133Z,36.83
2017-10-17T23:10:42.714Z,35.70
2017-10-17T23:13:10.309Z,36.77
2017-10-17T23:15:37.926Z,38.17
2017-10-17T23:18:17.120Z,31.70
2017-10-17T23:23:34.983Z,40.13
2017-10-17T23:26:02.540Z,39.70
2017-10-17T23:28:30.120Z,36.10
2017-10-17T23:30:57.731Z,35.80
2017-10-17T23:33:25.292Z,26.17
2017-10-17T23:35:52.869Z,27.47
2017-10-17T23:38:20.465Z,26.53
2017-10-17T23:40:48.066Z,24.60
2017-10-17T23:43:15.704Z,32.80
2017-10-17T23:45:43.314Z,34.80
2017-10-17T23:48:10.902Z,34.23
2017-10-17T23:50:38.491Z,32.23
2017-10-17T23:53:06.126Z,33.63
2017-10-17T23:55:33.721Z,33.73
2017-10-17T23:58:01.316Z,34.80
